Time;durP1;ratioP1;P1;durP2;ratioP2;P2;SDS_P1;SDS_P2;PMS_P1;PMS_P2;Temp;Humidity;BMP_temperature;BMP_pressure;BME280_temperature;BME280_humidity;BME280_pressure;Samples;Min_cycle;Max_cycle;Signal;HPM_P1;HPM_P2
2023/07/21 00:02:20;;;;;;;5.82;3.88;;;13.30;99.90;;;;;;6068863;23;20022;-82
2023/07/21 00:04:45;;;;;;;4.60;4.03;;;13.20;99.90;;;;;;6092070;23;20026;-82
2023/07/21 00:07:11;;;;;;;5.95;3.92;;;13.20;99.90;;;;;;6067596;23;20021;-82
2023/07/21 00:09:37;;;;;;;5.13;3.83;;;13.30;99.90;;;;;;6066981;23;20014;-82
2023/07/21 00:12:03;;;;;;;4.55;3.67;;;13.30;99.90;;;;;;6091920;23;20045;-82
2023/07/21 00:14:30;;;;;;;6.50;4.00;;;13.30;99.90;;;;;;6071139;23;20050;-82
2023/07/21 00:16:55;;;;;;;5.75;3.80;;;13.30;99.90;;;;;;6093097;23;20089;-82
2023/07/21 00:19:21;;;;;;;6.43;4.00;;;13.40;99.90;;;;;;6069418;23;20389;-82
2023/07/21 00:21:47;;;;;;;6.28;4.22;;;13.40;99.90;;;;;;6093109;23;20046;-82
2023/07/21 00:24:13;;;;;;;6.63;5.20;;;13.30;99.90;;;;;;6093628;23;20318;-82
2023/07/21 00:26:39;;;;;;;5.20;4.30;;;13.30;99.90;;;;;;6094259;23;20077;-82
2023/07/21 00:29:05;;;;;;;7.88;4.38;;;13.30;99.90;;;;;;6094427;23;20022;-82
2023/07/21 00:31:31;;;;;;;6.88;4.45;;;13.30;99.90;;;;;;6070814;23;20314;-82
2023/07/21 00:33:57;;;;;;;5.43;4.40;;;13.30;99.90;;;;;;6070829;23;20014;-82
2023/07/21 00:36:23;;;;;;;6.93;4.05;;;13.30;99.90;;;;;;6070721;23;20025;-82
2023/07/21 00:38:50;;;;;;;6.35;3.50;;;13.30;99.90;;;;;;6070579;23;20022;-82
2023/07/21 00:41:15;;;;;;;4.05;3.65;;;13.20;99.90;;;;;;6094403;23;20014;-82
2023/07/21 00:43:41;;;;;;;4.63;3.63;;;13.20;99.90;;;;;;6070947;23;20471;-82
2023/07/21 00:46:09;;;;;;;3.72;3.17;;;13.20;99.90;;;;;;6094272;23;20021;-82
2023/07/21 00:48:36;;;;;;;3.78;3.38;;;13.20;99.90;;;;;;6094396;23;20508;-82
2023/07/21 00:51:02;;;;;;;5.47;3.60;;;13.10;99.90;;;;;;6070708;23;20082;-82
2023/07/21 00:53:27;;;;;;;4.65;3.83;;;13.20;99.90;;;;;;6070408;23;20452;-82
2023/07/21 00:55:53;;;;;;;5.25;3.90;;;13.20;99.90;;;;;;6094724;23;20368;-82
2023/07/21 00:58:19;;;;;;;5.65;3.92;;;13.10;99.90;;;;;;6094008;23;20049;-82
2023/07/21 01:00:46;;;;;;;5.30;3.97;;;13.10;99.90;;;;;;6071063;23;20462;-82
2023/07/21 01:03:14;;;;;;;5.30;4.18;;;13.10;99.90;;;;;;6094465;23;20026;-82
2023/07/21 01:05:45;;;;;;;6.07;4.20;;;13.10;99.90;;;;;;6094005;23;20015;-83
2023/07/21 01:08:11;;;;;;;8.07;4.13;;;13.10;99.90;;;;;;6092076;23;20018;-82
2023/07/21 01:10:38;;;;;;;6.68;4.30;;;13.10;99.90;;;;;;6046742;23;20010;-83
2023/07/21 01:13:05;;;;;;;5.80;4.18;;;13.10;99.90;;;;;;6093791;23;20026;-81
2023/07/21 01:15:33;;;;;;;5.70;4.55;;;13.00;99.90;;;;;;6094196;23;20010;-83
2023/07/21 01:17:59;;;;;;;6.65;4.75;;;13.10;99.90;;;;;;6093375;23;20026;-83
2023/07/21 01:20:27;;;;;;;5.75;4.50;;;13.00;99.90;;;;;;6069752;23;20045;-82
2023/07/21 01:23:00;;;;;;;5.53;4.90;;;13.00;99.90;;;;;;6093211;23;20348;-83
2023/07/21 01:25:28;;;;;;;6.32;5.18;;;13.00;99.90;;;;;;6093837;23;20014;-83
2023/07/21 01:27:55;;;;;;;9.32;5.13;;;13.00;99.90;;;;;;6093087;23;20022;-83
2023/07/21 01:30:22;;;;;;;6.15;4.90;;;13.00;99.90;;;;;;6093690;23;20010;-83
2023/07/21 01:32:50;;;;;;;5.35;4.15;;;12.90;99.90;;;;;;6093399;23;20042;-83
2023/07/21 01:35:17;;;;;;;5.47;4.47;;;12.90;99.90;;;;;;6092492;23;20022;-82
2023/07/21 01:37:45;;;;;;;5.70;5.10;;;13.00;99.90;;;;;;6092945;23;20459;-82
2023/07/21 01:40:13;;;;;;;6.35;4.78;;;13.00;99.90;;;;;;6093696;23;20018;-83
2023/07/21 01:42:41;;;;;;;4.95;4.45;;;12.90;99.90;;;;;;6070469;23;20146;-82
2023/07/21 01:45:07;;;;;;;5.35;4.38;;;12.90;99.90;;;;;;6093309;23;20467;-83
2023/07/21 01:47:34;;;;;;;4.75;4.35;;;12.80;99.90;;;;;;6093701;23;20118;-82
2023/07/21 01:50:00;;;;;;;6.50;4.82;;;12.80;99.90;;;;;;6093766;23;20042;-83
2023/07/21 01:52:32;;;;;;;7.95;5.05;;;12.70;99.90;;;;;;6094296;23;20022;-83
2023/07/21 01:55:30;;;;;;;7.40;5.90;;;12.80;99.90;;;;;;6093403;23;20010;-83
2023/07/21 01:58:00;;;;;;;7.85;5.38;;;12.80;99.90;;;;;;6093472;23;20093;-82
2023/07/21 02:00:32;;;;;;;7.63;5.28;;;12.70;99.90;;;;;;6093250;23;20014;-82
2023/07/21 02:03:00;;;;;;;5.97;4.68;;;12.70;99.90;;;;;;6093509;23;20076;-82
2023/07/21 02:05:27;;;;;;;6.80;5.40;;;12.70;99.90;;;;;;6092316;23;20022;-83
2023/07/21 02:07:53;;;;;;;8.02;5.30;;;12.70;99.90;;;;;;6093436;23;20102;-83
2023/07/21 02:10:19;;;;;;;7.65;5.40;;;12.60;99.90;;;;;;6094058;23;20057;-82
2023/07/21 02:12:44;;;;;;;9.05;5.13;;;12.60;99.90;;;;;;6094296;23;20018;-83
2023/07/21 02:15:10;;;;;;;6.25;5.18;;;12.60;99.90;;;;;;6093746;23;20010;-82
2023/07/21 02:17:40;;;;;;;5.70;4.85;;;12.60;99.90;;;;;;6093255;23;20023;-83
2023/07/21 02:20:09;;;;;;;7.38;4.80;;;12.60;99.90;;;;;;6069297;23;20029;-82
2023/07/21 02:22:40;;;;;;;6.88;5.03;;;12.50;99.90;;;;;;6070611;23;20460;-83
2023/07/21 02:25:07;;;;;;;5.68;4.85;;;12.50;99.90;;;;;;6092968;23;20014;-82
2023/07/21 02:27:33;;;;;;;7.63;5.35;;;12.50;99.90;;;;;;6093270;23;20021;-83
2023/07/21 02:30:00;;;;;;;6.97;5.45;;;12.50;99.90;;;;;;6093465;23;20015;-83
2023/07/21 02:32:28;;;;;;;7.28;4.93;;;12.50;99.90;;;;;;6093770;23;20037;-82
2023/07/21 02:34:54;;;;;;;8.93;5.20;;;12.50;99.90;;;;;;6092889;23;20081;-83
2023/07/21 02:37:20;;;;;;;6.85;5.43;;;12.50;99.90;;;;;;6093667;23;20419;-82
2023/07/21 02:39:46;;;;;;;5.55;4.95;;;12.30;99.90;;;;;;6093701;23;20029;-82
2023/07/21 02:42:12;;;;;;;7.00;5.20;;;12.40;99.90;;;;;;6045801;23;20007;-82
2023/07/21 02:44:37;;;;;;;8.68;5.38;;;12.30;99.90;;;;;;6093111;23;20337;-82
2023/07/21 02:47:03;;;;;;;6.45;5.43;;;12.40;99.90;;;;;;6069088;23;20042;-82
2023/07/21 02:49:30;;;;;;;10.13;5.15;;;12.40;99.90;;;;;;6093373;23;20066;-82
2023/07/21 02:51:56;;;;;;;5.75;4.50;;;12.40;99.90;;;;;;6093182;23;20089;-82
2023/07/21 02:54:22;;;;;;;7.47;4.88;;;12.40;99.90;;;;;;6093132;23;20071;-83
2023/07/21 02:56:47;;;;;;;5.65;4.85;;;12.40;99.90;;;;;;6068790;23;20081;-82
2023/07/21 02:59:14;;;;;;;8.75;5.40;;;12.40;99.90;;;;;;6093329;23;20344;-83
2023/07/21 03:01:40;;;;;;;7.35;4.78;;;12.40;99.90;;;;;;6092989;23;20341;-83
2023/07/21 03:04:07;;;;;;;5.53;4.43;;;12.30;99.90;;;;;;6069143;23;20097;-82
2023/07/21 03:06:33;;;;;;;6.25;4.78;;;12.30;99.90;;;;;;6069866;23;20018;-83
2023/07/21 03:08:59;;;;;;;7.63;5.32;;;12.30;99.90;;;;;;6093435;23;20018;-82
2023/07/21 03:11:26;;;;;;;5.90;4.40;;;12.30;99.90;;;;;;6093508;23;20022;-83
2023/07/21 03:13:51;;;;;;;8.38;4.60;;;12.30;99.90;;;;;;6093236;23;20090;-82
2023/07/21 03:16:17;;;;;;;5.43;4.57;;;12.30;99.90;;;;;;6045762;23;20046;-83
2023/07/21 03:18:43;;;;;;;5.15;4.15;;;12.30;99.90;;;;;;6093397;23;20448;-82
2023/07/21 03:21:08;;;;;;;5.78;4.65;;;12.30;99.90;;;;;;6093119;23;20449;-83
2023/07/21 03:23:34;;;;;;;5.95;5.10;;;12.20;99.90;;;;;;6093333;23;20023;-83
2023/07/21 03:26:00;;;;;;;6.90;4.90;;;12.10;99.90;;;;;;6093255;23;20032;-82
2023/07/21 03:28:26;;;;;;;6.40;4.95;;;12.10;99.90;;;;;;6093082;23;20085;-82
2023/07/21 03:30:59;;;;;;;5.07;4.43;;;12.00;99.90;;;;;;6095093;23;20021;-82
2023/07/21 03:33:25;;;;;;;5.97;4.40;;;11.90;99.90;;;;;;6095239;23;20093;-83
2023/07/21 03:36:02;;;;;;;5.78;4.32;;;11.90;99.90;;;;;;6095578;23;20053;-82
2023/07/21 03:38:29;;;;;;;5.50;4.13;;;11.90;99.90;;;;;;6094658;23;20025;-83
2023/07/21 03:41:05;;;;;;;6.72;4.50;;;11.90;99.90;;;;;;6094696;23;20058;-83
2023/07/21 03:43:31;;;;;;;5.93;3.70;;;11.80;99.90;;;;;;6093726;23;20062;-83
2023/07/21 03:45:58;;;;;;;5.18;3.97;;;11.70;99.90;;;;;;6094892;23;20014;-82
2023/07/21 03:48:28;;;;;;;6.78;4.00;;;11.70;99.90;;;;;;6094342;23;20384;-82
2023/07/21 03:50:57;;;;;;;6.88;3.83;;;11.60;99.90;;;;;;6071462;23;20029;-83
2023/07/21 03:53:24;;;;;;;5.70;3.78;;;11.60;99.90;;;;;;6094864;23;20345;-82
2023/07/21 03:55:50;;;;;;;4.63;3.38;;;11.60;99.90;;;;;;6094877;23;20010;-82
2023/07/21 03:58:15;;;;;;;5.15;3.90;;;11.60;99.90;;;;;;6095008;23;20070;-82
2023/07/21 04:00:45;;;;;;;4.47;3.58;;;11.60;99.90;;;;;;6094326;23;20385;-83
2023/07/21 04:03:12;;;;;;;4.90;3.95;;;11.60;99.90;;;;;;6094612;23;20089;-82
2023/07/21 04:05:38;;;;;;;6.43;3.95;;;11.70;99.90;;;;;;6094473;23;20014;-82
2023/07/21 04:08:04;;;;;;;4.00;3.60;;;11.70;99.90;;;;;;6093729;23;20029;-82
2023/07/21 04:10:33;;;;;;;6.00;3.83;;;11.70;99.90;;;;;;6095209;23;20021;-82
2023/07/21 04:12:59;;;;;;;4.10;3.05;;;11.80;99.90;;;;;;6046883;23;20026;-82
2023/07/21 04:15:28;;;;;;;5.38;3.45;;;11.80;99.90;;;;;;6070409;23;20344;-83
2023/07/21 04:17:54;;;;;;;6.03;3.13;;;11.80;99.90;;;;;;6094685;23;20018;-82
2023/07/21 04:20:22;;;;;;;3.13;2.78;;;11.80;99.90;;;;;;6070893;23;20453;-82
2023/07/21 04:22:48;;;;;;;6.03;3.53;;;11.90;99.90;;;;;;6094305;23;20014;-83
2023/07/21 04:25:15;;;;;;;6.72;3.13;;;11.80;99.90;;;;;;6070772;23;20077;-82
2023/07/21 04:27:41;;;;;;;5.53;3.65;;;11.80;99.90;;;;;;6070853;23;20520;-83
2023/07/21 04:30:08;;;;;;;6.22;3.65;;;11.80;99.90;;;;;;6094602;23;20068;-83
2023/07/21 04:32:33;;;;;;;3.80;3.30;;;11.80;99.90;;;;;;6094577;23;20318;-82
2023/07/21 04:35:03;;;;;;;5.68;3.20;;;11.90;99.90;;;;;;6069793;23;20022;-83
2023/07/21 04:37:29;;;;;;;3.33;2.95;;;11.90;99.90;;;;;;6094752;23;20028;-83
2023/07/21 04:39:54;;;;;;;5.00;3.03;;;11.90;99.90;;;;;;6093546;23;20018;-83
2023/07/21 04:42:20;;;;;;;4.43;3.10;;;12.00;99.90;;;;;;6069641;23;20026;-83
2023/07/21 04:44:48;;;;;;;6.05;3.40;;;12.10;99.90;;;;;;6093972;23;20018;-83
2023/07/21 04:47:13;;;;;;;4.97;3.25;;;12.10;99.90;;;;;;6094047;23;20014;-83
2023/07/21 04:49:39;;;;;;;4.38;3.17;;;12.20;99.90;;;;;;6093818;23;20551;-82
2023/07/21 04:52:05;;;;;;;5.72;3.40;;;12.20;99.90;;;;;;6094031;23;20352;-83
2023/07/21 04:54:31;;;;;;;4.03;3.40;;;12.30;99.90;;;;;;6093852;23;20073;-82
2023/07/21 04:56:57;;;;;;;4.43;3.40;;;12.30;99.90;;;;;;6070200;23;20532;-83
2023/07/21 04:59:23;;;;;;;4.15;3.00;;;12.40;99.90;;;;;;6093946;23;20021;-83
2023/07/21 05:01:49;;;;;;;4.35;3.05;;;12.50;99.90;;;;;;6094203;23;20026;-83
2023/07/21 05:04:16;;;;;;;6.45;3.20;;;12.50;99.90;;;;;;6047040;23;20014;-83
2023/07/21 05:06:43;;;;;;;5.95;3.30;;;12.60;99.90;;;;;;6070734;23;20014;-83
2023/07/21 05:09:10;;;;;;;6.05;2.97;;;12.60;99.90;;;;;;6093967;23;20297;-83
2023/07/21 05:11:36;;;;;;;3.88;3.08;;;12.70;99.90;;;;;;6094544;23;20025;-83
2023/07/21 05:14:03;;;;;;;4.68;2.80;;;12.70;99.90;;;;;;6094359;23;20010;-83
2023/07/21 05:16:29;;;;;;;4.15;3.15;;;12.80;99.90;;;;;;6094149;23;20393;-83
2023/07/21 05:18:55;;;;;;;5.93;3.42;;;12.90;99.90;;;;;;6093780;23;20018;-83
2023/07/21 05:21:21;;;;;;;5.93;3.13;;;13.00;99.90;;;;;;6093371;23;20507;-83
2023/07/21 05:23:46;;;;;;;3.72;3.17;;;12.90;99.90;;;;;;6093795;23;20073;-83
2023/07/21 05:26:12;;;;;;;5.30;3.08;;;13.00;99.90;;;;;;6093290;23;20026;-83
2023/07/21 05:28:41;;;;;;;5.00;2.95;;;13.10;99.90;;;;;;6093480;23;20042;-83
2023/07/21 05:31:11;;;;;;;4.95;3.22;;;13.20;99.90;;;;;;6093386;23;20022;-83
2023/07/21 05:33:36;;;;;;;2.78;2.55;;;13.20;99.90;;;;;;6093437;23;20330;-83
2023/07/21 05:36:08;;;;;;;4.90;3.53;;;13.30;99.90;;;;;;6069836;23;20069;-83
2023/07/21 05:38:37;;;;;;;5.03;2.92;;;13.40;99.90;;;;;;6093817;23;20018;-83
2023/07/21 05:41:04;;;;;;;7.00;3.42;;;13.50;99.90;;;;;;6093923;23;20018;-83
2023/07/21 05:43:31;;;;;;;3.15;2.80;;;13.50;99.90;;;;;;6069081;23;20015;-83
2023/07/21 05:45:57;;;;;;;5.28;3.70;;;13.60;99.90;;;;;;6093082;23;20041;-83
2023/07/21 05:48:24;;;;;;;4.88;3.17;;;13.60;99.90;;;;;;6092476;23;20085;-83
2023/07/21 05:50:51;;;;;;;4.75;3.13;;;13.70;99.90;;;;;;6070160;23;20017;-83
2023/07/21 05:53:17;;;;;;;5.25;3.08;;;13.80;99.90;;;;;;6093838;23;20142;-83
2023/07/21 05:55:43;;;;;;;7.03;3.50;;;14.00;99.90;;;;;;6092730;23;20440;-83
2023/07/21 05:58:09;;;;;;;5.43;2.88;;;14.10;99.90;;;;;;6093415;23;20077;-83
2023/07/21 06:00:39;;;;;;;6.30;3.33;;;14.30;99.90;;;;;;6093319;23;20448;-83
2023/07/21 06:03:06;;;;;;;4.75;2.80;;;14.50;99.90;;;;;;6094185;23;20057;-83
2023/07/21 06:05:32;;;;;;;6.15;3.10;;;14.70;99.90;;;;;;6094404;23;20077;-83
2023/07/21 06:07:58;;;;;;;3.33;2.70;;;14.80;99.90;;;;;;6093471;23;20018;-83
2023/07/21 06:10:24;;;;;;;5.05;2.78;;;15.00;99.90;;;;;;6069150;23;20524;-83
2023/07/21 06:12:49;;;;;;;4.15;3.00;;;15.10;99.90;;;;;;6093698;23;20014;-83
2023/07/21 06:15:15;;;;;;;5.93;2.85;;;15.30;99.90;;;;;;6093386;23;20062;-83
2023/07/21 06:17:41;;;;;;;4.90;2.80;;;15.50;99.90;;;;;;6093500;23;20015;-83
2023/07/21 06:20:10;;;;;;;3.85;2.35;;;15.60;99.90;;;;;;6092634;23;20448;-82
2023/07/21 06:22:36;;;;;;;3.88;2.60;;;15.80;99.90;;;;;;6092462;23;20014;-83
2023/07/21 06:25:03;;;;;;;4.05;2.33;;;16.00;99.90;;;;;;6092825;23;20105;-84
2023/07/21 06:27:29;;;;;;;4.07;2.50;;;16.20;99.90;;;;;;6068760;23;20464;-83
2023/07/21 06:29:55;;;;;;;2.95;2.05;;;16.30;99.90;;;;;;6093534;23;20098;-82
2023/07/21 06:32:21;;;;;;;2.55;1.95;;;16.40;99.90;;;;;;6091823;23;20026;-82
2023/07/21 06:34:47;;;;;;;3.78;2.13;;;16.60;99.90;;;;;;6092311;23;20010;-84
2023/07/21 06:37:13;;;;;;;2.45;1.85;;;16.70;99.90;;;;;;6092448;23;20010;-82
2023/07/21 06:39:38;;;;;;;3.25;2.38;;;16.80;99.90;;;;;;6091280;23;20021;-82
2023/07/21 06:42:05;;;;;;;6.90;2.47;;;16.90;99.90;;;;;;6039355;23;20021;-83
2023/07/21 06:44:31;;;;;;;4.00;2.47;;;17.00;99.90;;;;;;6086472;23;20111;-83
2023/07/21 06:46:57;;;;;;;2.47;1.85;;;17.10;99.90;;;;;;6086958;23;20014;-84
2023/07/21 06:49:23;;;;;;;4.25;1.95;;;17.20;99.90;;;;;;6060889;23;20105;-83
2023/07/21 06:51:49;;;;;;;3.15;2.10;;;17.30;99.90;;;;;;6084946;23;20448;-83
2023/07/21 06:54:15;;;;;;;3.22;2.00;;;17.30;99.90;;;;;;6085927;23;20015;-83
2023/07/21 06:56:40;;;;;;;3.40;2.08;;;17.40;99.90;;;;;;6085846;23;20042;-83
2023/07/21 06:59:07;;;;;;;3.80;1.83;;;17.50;99.90;;;;;;6062375;23;20089;-83
2023/07/21 07:01:32;;;;;;;3.95;1.90;;;17.60;99.90;;;;;;6061352;23;20022;-82
2023/07/21 07:03:59;;;;;;;3.92;1.92;;;17.70;99.90;;;;;;6086637;23;20015;-83
2023/07/21 07:06:27;;;;;;;3.05;1.98;;;17.70;99.90;;;;;;6064067;23;20480;-83
2023/07/21 07:08:53;;;;;;;4.18;2.20;;;17.70;99.90;;;;;;6065421;23;20093;-82
2023/07/21 07:11:18;;;;;;;5.47;2.47;;;17.60;99.90;;;;;;6087458;23;20050;-82
2023/07/21 07:13:44;;;;;;;3.67;1.90;;;17.60;99.90;;;;;;6088977;23;20088;-82
2023/07/21 07:16:11;;;;;;;3.53;2.17;;;17.60;99.90;;;;;;6039407;23;20018;-82
2023/07/21 07:18:37;;;;;;;4.18;2.17;;;17.50;99.90;;;;;;6040769;23;20022;-83
2023/07/21 07:21:03;;;;;;;2.53;1.80;;;17.40;99.90;;;;;;6089296;23;20022;-82
2023/07/21 07:23:29;;;;;;;4.20;1.98;;;17.30;99.90;;;;;;6062557;23;20022;-83
2023/07/21 07:25:55;;;;;;;4.72;2.08;;;17.20;99.90;;;;;;6063113;23;20018;-82
2023/07/21 07:28:21;;;;;;;3.55;2.10;;;17.30;99.90;;;;;;6063247;23;20444;-82
2023/07/21 07:30:48;;;;;;;4.60;2.10;;;17.40;99.90;;;;;;6086790;23;20018;-82
2023/07/21 07:33:15;;;;;;;2.22;1.48;;;17.60;99.90;;;;;;6087069;23;20487;-83
2023/07/21 07:35:47;;;;;;;4.20;2.03;;;17.70;99.90;;;;;;6087525;23;20054;-82
2023/07/21 07:38:13;;;;;;;;;;;17.80;99.90;;;;;;6088066;23;20049;-82
2023/07/21 07:40:39;;;;;;;2.95;2.08;;;17.80;99.90;;;;;;6087638;23;19917;-82
2023/07/21 07:43:04;;;;;;;1.95;1.80;;;17.90;99.90;;;;;;6062734;23;20026;-82
2023/07/21 07:45:31;;;;;;;2.33;1.58;;;18.10;99.90;;;;;;6086874;23;20046;-82
2023/07/21 07:47:57;;;;;;;1.70;1.58;;;18.20;99.90;;;;;;6086999;23;20053;-82
2023/07/21 07:50:22;;;;;;;3.65;1.65;;;18.30;99.90;;;;;;6085741;23;20026;-81
2023/07/21 07:52:49;;;;;;;3.08;1.77;;;18.40;99.90;;;;;;6062187;23;20441;-82
2023/07/21 07:55:15;;;;;;;1.70;1.40;;;18.40;99.90;;;;;;6085506;23;20018;-82
2023/07/21 07:57:41;;;;;;;1.83;1.40;;;18.50;99.90;;;;;;6086627;23;20019;-81
2023/07/21 08:00:08;;;;;;;3.35;1.60;;;18.50;99.90;;;;;;6085477;23;20026;-81
2023/07/21 08:02:34;;;;;;;3.92;1.75;;;18.60;99.90;;;;;;6087426;23;20097;-81
2023/07/21 08:04:59;;;;;;;2.63;1.67;;;18.70;99.90;;;;;;6063929;23;20074;-82
2023/07/21 08:07:25;;;;;;;2.13;1.50;;;18.80;99.90;;;;;;6063396;23;20019;-82
2023/07/21 08:09:51;;;;;;;2.50;1.40;;;18.80;99.90;;;;;;6087990;23;20337;-82
2023/07/21 08:12:17;;;;;;;2.33;1.50;;;18.90;99.90;;;;;;6088031;23;20463;-82
2023/07/21 08:14:43;;;;;;;2.03;1.45;;;18.90;99.90;;;;;;6062741;23;20021;-81
2023/07/21 08:17:09;;;;;;;2.38;1.40;;;19.00;99.90;;;;;;6085456;23;20046;-82
2023/07/21 08:19:35;;;;;;;4.15;2.10;;;19.10;99.90;;;;;;6086089;23;20081;-82
2023/07/21 08:22:05;;;;;;;2.03;1.50;;;19.10;99.90;;;;;;6062364;23;20026;-81
2023/07/21 08:24:31;;;;;;;2.25;1.77;;;19.20;99.90;;;;;;6085137;23;20029;-81
2023/07/21 08:26:59;;;;;;;2.20;1.70;;;19.30;99.90;;;;;;6085607;23;20029;-82
2023/07/21 08:29:26;;;;;;;1.88;1.50;;;19.30;99.90;;;;;;6086298;23;20018;-81
2023/07/21 08:31:52;;;;;;;2.30;1.80;;;19.30;99.90;;;;;;6086921;23;20010;-81
2023/07/21 08:34:18;;;;;;;2.00;1.73;;;19.40;99.90;;;;;;6039099;23;20046;-82
2023/07/21 08:36:44;;;;;;;2.67;1.90;;;19.40;99.90;;;;;;6084894;23;20014;-81
2023/07/21 08:39:09;;;;;;;2.88;1.70;;;19.50;99.90;;;;;;6085787;23;20019;-81
2023/07/21 08:41:43;;;;;;;4.43;1.88;;;19.60;99.90;;;;;;6062408;23;20014;-81
2023/07/21 08:44:11;;;;;;;3.72;1.90;;;19.70;99.90;;;;;;6083665;23;20023;-81
2023/07/21 08:46:36;;;;;;;2.40;1.60;;;19.70;99.90;;;;;;6061584;23;20014;-82
2023/07/21 08:49:04;;;;;;;1.98;1.70;;;19.70;99.90;;;;;;6062269;23;20027;-81
2023/07/21 08:51:30;;;;;;;2.47;1.60;;;19.70;99.90;;;;;;6061890;23;20093;-82
2023/07/21 08:53:56;;;;;;;2.95;1.65;;;19.90;99.90;;;;;;6086418;23;20060;-80
2023/07/21 08:56:21;;;;;;;1.88;1.55;;;19.90;99.90;;;;;;6086139;23;20014;-83
2023/07/21 08:58:47;;;;;;;2.80;1.40;;;20.00;99.90;;;;;;6086227;23;20014;-81
2023/07/21 09:01:13;;;;;;;2.25;1.50;;;20.00;99.90;;;;;;6085324;23;20336;-81
2023/07/21 09:03:45;;;;;;;3.35;1.40;;;20.10;99.90;;;;;;6085285;23;20022;-81
2023/07/21 09:06:13;;;;;;;3.88;1.58;;;20.10;99.90;;;;;;6086680;23;20344;-82
2023/07/21 09:08:38;;;;;;;2.40;1.40;;;20.20;99.90;;;;;;6063546;23;20019;-82
2023/07/21 09:11:04;;;;;;;1.75;1.45;;;20.30;99.90;;;;;;6087464;23;20398;-82
2023/07/21 09:13:32;;;;;;;1.73;1.40;;;20.40;99.90;;;;;;6063789;23;20441;-81
2023/07/21 09:16:05;;;;;;;2.08;1.45;;;20.50;99.90;;;;;;6085179;23;20096;-81
2023/07/21 09:18:42;;;;;;;1.60;1.50;;;20.50;99.90;;;;;;6085798;23;20436;-82
2023/07/21 09:21:21;;;;;;;2.85;1.58;;;20.50;99.90;;;;;;6087332;23;20639;-81
2023/07/21 09:23:47;;;;;;;3.25;1.70;;;20.60;99.90;;;;;;6087113;23;20032;-82
2023/07/21 09:26:21;;;;;;;1.98;1.50;;;20.70;99.90;;;;;;6086133;23;20493;-82
2023/07/21 09:28:47;;;;;;;1.75;1.35;;;20.70;99.90;;;;;;6085633;23;20022;-82
2023/07/21 09:31:13;;;;;;;2.15;1.50;;;20.90;99.90;;;;;;6085942;23;20018;-82
2023/07/21 09:33:45;;;;;;;1.70;1.30;;;20.90;99.90;;;;;;6086330;23;20049;-82
2023/07/21 09:36:13;;;;;;;1.48;1.30;;;20.90;99.90;;;;;;6085439;23;20014;-82
2023/07/21 09:38:39;;;;;;;2.42;1.50;;;21.00;99.90;;;;;;6086509;23;20193;-82
2023/07/21 09:41:10;;;;;;;1.52;1.27;;;21.00;99.90;;;;;;6085758;23;20014;-81
2023/07/21 09:43:38;;;;;;;1.90;1.30;;;21.20;99.90;;;;;;6063072;23;20046;-82
2023/07/21 09:46:07;;;;;;;1.88;1.40;;;21.30;99.90;;;;;;6086944;23;20353;-82
2023/07/21 09:48:35;;;;;;;2.13;1.48;;;21.10;99.90;;;;;;6087215;23;20018;-82
2023/07/21 09:51:07;;;;;;;1.65;1.15;;;20.90;99.90;;;;;;6085782;23;20018;-81
2023/07/21 09:53:39;;;;;;;3.67;1.30;;;20.90;99.90;;;;;;6059438;23;20074;-83
2023/07/21 09:56:06;;;;;;;1.98;1.58;;;21.00;99.90;;;;;;6085228;23;20018;-82
2023/07/21 09:58:36;;;;;;;2.13;1.55;;;21.20;99.90;;;;;;6087166;23;20056;-82
2023/07/21 10:01:03;;;;;;;1.75;1.40;;;21.30;99.90;;;;;;6086227;23;20073;-82
2023/07/21 10:03:34;;;;;;;1.63;1.48;;;21.30;99.90;;;;;;6062671;23;20018;-83
2023/07/21 10:06:01;;;;;;;3.85;1.20;;;21.40;99.90;;;;;;6063223;23;20085;-81
2023/07/21 10:08:36;;;;;;;1.90;1.27;;;21.50;99.90;;;;;;6086683;23;20375;-81
2023/07/21 10:11:04;;;;;;;2.85;1.50;;;21.60;99.90;;;;;;6063168;23;20010;-82
2023/07/21 10:13:32;;;;;;;2.35;1.60;;;21.80;99.90;;;;;;6086003;23;20021;-82
2023/07/21 10:16:07;;;;;;;1.60;1.42;;;21.90;99.90;;;;;;6086448;23;20049;-82
2023/07/21 10:18:32;;;;;;;2.25;1.55;;;21.90;99.90;;;;;;6085796;23;20050;-82
2023/07/21 10:20:58;;;;;;;1.65;1.33;;;22.00;99.90;;;;;;6086508;23;20018;-82
2023/07/21 10:23:25;;;;;;;1.58;1.48;;;21.90;99.90;;;;;;6086694;23;20058;-82
2023/07/21 10:25:51;;;;;;;3.28;1.45;;;21.60;99.90;;;;;;6086605;23;20022;-82
2023/07/21 10:28:39;;;;;;;1.58;1.13;;;21.40;99.90;;;;;;6086917;23;20018;-82
2023/07/21 10:31:25;;;;;;;2.05;1.33;;;21.30;99.90;;;;;;6086335;23;20018;-83
2023/07/21 10:34:06;;;;;;;1.67;1.58;;;21.10;99.90;;;;;;6087071;23;20105;-83
2023/07/21 10:36:58;;;;;;;1.70;1.58;;;21.00;99.90;;;;;;6087745;23;20011;-81
2023/07/21 10:39:36;;;;;;;1.50;1.40;;;20.80;99.90;;;;;;6074500;23;20022;-82
2023/07/21 10:42:07;;;;;;;1.95;1.60;;;20.70;99.90;;;;;;6087434;23;20014;-83
2023/07/21 10:44:34;;;;;;;1.60;1.40;;;20.70;99.90;;;;;;6087015;23;20014;-83
2023/07/21 10:46:59;;;;;;;1.60;1.50;;;20.60;99.90;;;;;;6088811;23;20030;-83
2023/07/21 10:49:25;;;;;;;2.90;1.70;;;20.50;99.90;;;;;;6092899;23;20019;-82
2023/07/21 10:51:51;;;;;;;1.30;1.20;;;20.40;99.90;;;;;;6068508;23;20056;-84
2023/07/21 10:54:17;;;;;;;2.42;1.63;;;20.20;99.90;;;;;;6093072;23;20015;-83
2023/07/21 10:56:48;;;;;;;2.47;1.30;;;20.20;99.90;;;;;;6069723;23;20097;-83
2023/07/21 10:59:15;;;;;;;3.10;1.88;;;20.30;99.90;;;;;;6093773;23;20018;-84
2023/07/21 11:01:42;;;;;;;2.67;1.70;;;20.30;99.90;;;;;;6070070;23;20019;-83
2023/07/21 11:04:08;;;;;;;1.60;1.50;;;20.30;99.90;;;;;;6070497;23;20089;-83
2023/07/21 11:06:39;;;;;;;3.10;1.55;;;20.30;99.90;;;;;;6094629;23;20553;-83
2023/07/21 11:09:05;;;;;;;2.60;1.77;;;20.20;99.90;;;;;;6093902;23;20025;-83
2023/07/21 11:11:30;;;;;;;1.65;1.42;;;20.10;99.90;;;;;;6070262;23;20010;-83
2023/07/21 11:13:56;;;;;;;2.55;1.98;;;20.20;99.90;;;;;;6093575;23;20104;-82
2023/07/21 11:16:22;;;;;;;1.88;1.77;;;20.20;99.90;;;;;;6093743;23;20425;-83
2023/07/21 11:18:47;;;;;;;2.05;1.65;;;20.10;99.90;;;;;;6069858;23;20018;-85
2023/07/21 11:21:13;;;;;;;2.10;1.85;;;20.20;99.90;;;;;;6094071;23;20018;-84
2023/07/21 11:23:39;;;;;;;1.98;1.67;;;20.30;99.90;;;;;;6093525;23;20022;-83
2023/07/21 11:26:07;;;;;;;2.90;1.95;;;20.40;99.90;;;;;;6069614;23;20579;-83
2023/07/21 11:28:34;;;;;;;2.08;1.77;;;20.60;99.90;;;;;;6093108;23;20015;-84
2023/07/21 11:31:01;;;;;;;3.30;1.73;;;20.70;99.90;;;;;;6093191;23;20340;-84
2023/07/21 11:33:47;;;;;;;2.65;1.90;;;20.70;99.90;;;;;;6093966;23;20025;-84
2023/07/21 11:36:23;;;;;;;3.15;1.77;;;20.70;99.90;;;;;;6093674;23;20015;-83
2023/07/21 11:39:01;;;;;;;2.63;1.80;;;20.60;99.90;;;;;;6093273;23;20015;-83
2023/07/21 11:41:31;;;;;;;2.25;1.90;;;20.70;99.90;;;;;;6093426;23;20093;-84
2023/07/21 11:43:57;;;;;;;1.60;1.43;;;20.60;99.90;;;;;;6092873;23;20073;-82
2023/07/21 11:46:26;;;;;;;1.63;1.50;;;20.60;99.90;;;;;;6092977;23;20444;-83
2023/07/21 11:48:52;;;;;;;1.70;1.60;;;20.60;99.90;;;;;;6092820;23;20085;-82
2023/07/21 11:51:21;;;;;;;2.95;2.03;;;20.60;99.90;;;;;;6070460;23;20056;-82
2023/07/21 11:53:48;;;;;;;1.90;1.80;;;20.50;99.90;;;;;;6095506;23;20022;-84
2023/07/21 11:56:15;;;;;;;1.73;1.63;;;20.40;99.90;;;;;;6095570;23;20014;-84
2023/07/21 11:58:44;;;;;;;2.55;1.65;;;20.40;99.90;;;;;;6047456;23;20023;-83
2023/07/21 12:01:10;;;;;;;2.28;1.73;;;20.50;99.90;;;;;;6094807;23;20025;-82
2023/07/21 12:03:42;;;;;;;2.05;1.80;;;20.70;99.90;;;;;;6071401;23;20464;-83
2023/07/21 12:06:10;;;;;;;3.38;1.60;;;21.00;99.90;;;;;;6070560;23;20014;-83
2023/07/21 12:08:36;;;;;;;2.45;1.75;;;21.30;99.90;;;;;;6094635;23;20018;-82
2023/07/21 12:11:02;;;;;;;2.70;1.65;;;21.50;99.90;;;;;;6094742;23;20014;-83
2023/07/21 12:13:28;;;;;;;2.05;1.70;;;21.50;99.90;;;;;;6095193;23;20022;-83
2023/07/21 12:15:53;;;;;;;1.73;1.60;;;21.70;99.90;;;;;;6070781;23;20093;-83
2023/07/21 12:18:19;;;;;;;1.80;1.50;;;21.80;99.90;;;;;;6093549;23;20029;-82
2023/07/21 12:20:45;;;;;;;2.13;1.70;;;21.90;99.90;;;;;;6039662;23;20085;-83
2023/07/21 12:23:11;;;;;;;2.30;1.48;;;22.00;99.90;;;;;;6068897;23;20018;-83
2023/07/21 12:25:37;;;;;;;2.35;1.60;;;22.20;99.90;;;;;;6095174;23;20015;-83
2023/07/21 12:28:04;;;;;;;1.55;1.33;;;22.40;99.90;;;;;;6095087;23;20018;-83
2023/07/21 12:30:30;;;;;;;3.15;1.52;;;22.30;99.90;;;;;;6047058;23;20053;-83
2023/07/21 12:32:55;;;;;;;2.65;1.48;;;22.60;99.90;;;;;;6093829;23;20077;-82
2023/07/21 12:35:22;;;;;;;1.75;1.50;;;22.70;99.90;;;;;;6069830;23;20014;-82
2023/07/21 12:37:48;;;;;;;2.10;1.60;;;22.60;99.90;;;;;;6070764;23;20443;-81
2023/07/21 12:40:15;;;;;;;1.92;1.80;;;22.60;99.90;;;;;;6071339;23;20010;-83
2023/07/21 12:42:41;;;;;;;1.40;1.30;;;22.60;99.90;;;;;;6045636;23;20069;-83
2023/07/21 12:45:08;;;;;;;3.42;1.40;;;22.50;99.90;;;;;;6091383;23;20014;-83
2023/07/21 12:47:35;;;;;;;2.90;1.40;;;22.30;99.90;;;;;;6092720;23;20019;-82
2023/07/21 12:50:01;;;;;;;1.60;1.38;;;22.10;99.90;;;;;;6092482;23;20082;-82